Village of Loch Lloyd, Missouri
Current Conditions -  °F | °C
As of 5:32 AM on Thursday 18 Dec 2014 (Local Time) from KOJC Reporting Station
Light Snow Light Snow  
Wind Chill: 21°   Ceiling: 3000
Heat Index: 28°   Visibility: 2.5mi
Dew Point: 27°   Wind: 7mph
Humidity: 96%   Direction: 80°E
Pressure: 30.17"   Gusts: NA
Location:  38.7873°N, 94.553°W
Report Text: KOJC 181132Z AUTO 08006KT 2 1/2SM -SN BR BKN030 OVC038 M02/M03 A3017 RMK AO2 P0000 T10221028
Loading
Personal Weather Stations






























Interactive Weather Map New forecast layout! Learn more

10-Day Weather Forecast

Advertisements
Track Severe Weather on mobile